createdAt,value
2022-08-20T00:04:15.239Z,99.90
2022-08-20T00:09:18.434Z,99.90
2022-08-20T00:14:21.560Z,99.90
2022-08-20T00:19:25.033Z,99.90
2022-08-20T00:24:30.774Z,99.90
2022-08-20T00:29:34.108Z,99.90
2022-08-20T00:34:37.418Z,99.90
2022-08-20T00:39:40.743Z,99.90
2022-08-20T00:44:48.468Z,99.90
2022-08-20T00:49:51.656Z,99.90
2022-08-20T00:55:00.811Z,99.90
2022-08-20T01:00:10.075Z,99.90
2022-08-20T01:05:14.332Z,99.90
2022-08-20T01:10:20.713Z,99.90
2022-08-20T01:15:30.926Z,99.90
2022-08-20T01:20:48.931Z,99.90
2022-08-20T01:26:01.232Z,99.90
2022-08-20T01:31:07.945Z,99.90
2022-08-20T01:36:11.447Z,99.90
2022-08-20T01:41:28.039Z,99.90
2022-08-20T01:46:43.742Z,99.90
2022-08-20T01:51:49.131Z,99.90
2022-08-20T01:57:17.193Z,99.90
2022-08-20T02:02:20.750Z,99.90
2022-08-20T02:07:24.291Z,99.90
2022-08-20T02:12:27.750Z,99.90
2022-08-20T02:17:31.099Z,99.90
2022-08-20T02:22:49.981Z,99.90
2022-08-20T02:27:56.064Z,99.90
2022-08-20T02:33:00.173Z,99.90
2022-08-20T02:38:04.455Z,99.90
2022-08-20T02:43:08.310Z,99.90
2022-08-20T02:48:21.651Z,99.90
2022-08-20T02:53:26.850Z,99.90
2022-08-20T02:58:30.194Z,99.90
2022-08-20T03:03:33.833Z,99.90
2022-08-20T03:08:37.431Z,99.90
2022-08-20T03:13:40.419Z,99.90
2022-08-20T03:18:46.111Z,99.90
2022-08-20T03:23:49.275Z,99.90
2022-08-20T03:28:52.372Z,99.90
2022-08-20T03:33:55.771Z,99.90
2022-08-20T03:39:00.872Z,99.90
2022-08-20T03:44:05.254Z,99.90
2022-08-20T03:49:08.673Z,99.90
2022-08-20T03:54:11.972Z,99.90
2022-08-20T03:59:15.191Z,99.90
2022-08-20T04:04:18.512Z,99.90
2022-08-20T04:09:21.711Z,99.90
2022-08-20T04:14:24.979Z,99.90
2022-08-20T04:19:34.211Z,99.90
2022-08-20T04:24:37.860Z,99.90
2022-08-20T04:29:43.651Z,99.90
2022-08-20T04:34:47.299Z,99.90
2022-08-20T04:40:09.991Z,99.90
2022-08-20T04:45:13.304Z,99.90
2022-08-20T04:50:17.132Z,99.90
2022-08-20T04:55:20.631Z,99.90
2022-08-20T05:00:23.908Z,99.90
2022-08-20T05:05:28.395Z,99.90
2022-08-20T05:10:31.892Z,99.90
2022-08-20T05:15:36.559Z,99.90
2022-08-20T05:20:42.873Z,99.90
2022-08-20T05:25:48.372Z,99.90
2022-08-20T05:30:52.975Z,99.90
2022-08-20T05:35:58.074Z,99.90
2022-08-20T05:41:01.538Z,99.90
2022-08-20T05:46:04.812Z,99.90
2022-08-20T05:51:11.043Z,99.90
2022-08-20T05:56:17.537Z,99.90
2022-08-20T06:01:21.105Z,99.90
2022-08-20T06:06:45.924Z,99.90
2022-08-20T06:11:47.718Z,99.90
2022-08-20T06:16:57.963Z,99.90
2022-08-20T06:22:08.699Z,99.90
2022-08-20T06:27:23.632Z,99.90
2022-08-20T06:32:32.102Z,99.90
2022-08-20T06:37:41.497Z,99.90
2022-08-20T06:42:48.614Z,99.90
2022-08-20T06:47:55.920Z,99.90
2022-08-20T06:53:00.476Z,99.90
2022-08-20T06:58:07.112Z,99.90
2022-08-20T07:03:31.792Z,99.90
2022-08-20T07:08:35.897Z,99.90
2022-08-20T07:13:38.893Z,99.90
2022-08-20T07:18:41.952Z,99.90
2022-08-20T07:23:45.252Z,99.90
2022-08-20T07:28:48.573Z,99.90
2022-08-20T07:33:51.774Z,99.90
2022-08-20T07:38:56.967Z,99.90
2022-08-20T07:44:00.119Z,99.90
2022-08-20T07:49:05.731Z,99.90
2022-08-20T07:54:09.035Z,99.90
2022-08-20T07:59:13.811Z,99.90
2022-08-20T08:04:17.093Z,99.90
2022-08-20T08:09:20.615Z,99.90
2022-08-20T08:14:27.254Z,99.90
2022-08-20T08:19:36.621Z,99.90
2022-08-20T08:24:56.767Z,99.90
2022-08-20T08:30:01.732Z,99.90
2022-08-20T08:35:09.553Z,99.90
2022-08-20T08:40:13.621Z,99.90
2022-08-20T08:45:18.212Z,99.90
2022-08-20T08:50:53.561Z,99.90
2022-08-20T08:55:52.115Z,99.90
2022-08-20T09:00:57.491Z,99.90
2022-08-20T09:06:03.015Z,99.90
2022-08-20T09:11:08.953Z,99.90
2022-08-20T09:16:13.954Z,99.90
2022-08-20T09:21:17.934Z,99.90
2022-08-20T09:26:21.396Z,99.90
2022-08-20T09:31:25.112Z,99.90
2022-08-20T09:36:31.894Z,99.90
2022-08-20T09:41:37.353Z,99.90
2022-08-20T09:46:43.475Z,99.90
2022-08-20T09:51:46.895Z,99.90
2022-08-20T09:56:50.551Z,99.90
2022-08-20T10:01:53.971Z,99.90
2022-08-20T10:06:58.413Z,99.90
2022-08-20T10:12:01.827Z,99.90
2022-08-20T10:17:05.257Z,99.90
2022-08-20T10:22:08.512Z,99.90
2022-08-20T10:27:12.254Z,99.90
2022-08-20T10:32:17.893Z,99.90
2022-08-20T10:37:26.558Z,99.90
2022-08-20T10:42:29.880Z,99.90
2022-08-20T10:47:33.932Z,99.90
2022-08-20T10:52:37.693Z,99.90
2022-08-20T10:57:43.583Z,99.90
2022-08-20T11:02:47.271Z,99.90
2022-08-20T11:08:00.264Z,99.90
2022-08-20T11:13:05.897Z,99.90
2022-08-20T11:18:10.381Z,99.90
2022-08-20T11:23:13.993Z,99.90
2022-08-20T11:28:17.272Z,99.90
2022-08-20T11:33:35.699Z,99.90
2022-08-20T11:38:43.652Z,99.90
2022-08-20T11:44:04.754Z,99.90
2022-08-20T11:49:10.448Z,99.90
2022-08-20T11:54:14.016Z,99.90
2022-08-20T11:59:18.773Z,99.90
2022-08-20T12:04:22.154Z,99.90
2022-08-20T12:09:29.716Z,98.60
2022-08-20T12:14:32.971Z,99.90
2022-08-20T12:19:39.256Z,98.60
2022-08-20T12:24:42.754Z,99.10
2022-08-20T12:29:47.977Z,97.90
2022-08-20T12:34:51.792Z,97.80
2022-08-20T12:40:34.109Z,94.20
2022-08-20T12:45:52.437Z,94.60
2022-08-20T12:50:55.351Z,95.20
2022-08-20T13:01:37.297Z,92.50
2022-08-20T13:07:18.054Z,91.90
2022-08-20T13:12:45.261Z,91.20
2022-08-20T13:24:47.438Z,93.40
2022-08-20T13:42:14.600Z,89.20
2022-08-20T13:47:20.978Z,85.30
2022-08-20T13:52:24.535Z,86.50
2022-08-20T13:57:28.752Z,87.40
2022-08-20T14:02:33.979Z,83.00
2022-08-20T14:07:37.673Z,81.10
2022-08-20T14:12:42.053Z,78.50
2022-08-20T14:17:55.533Z,77.90
2022-08-20T14:23:00.012Z,75.00
2022-08-20T14:28:38.411Z,81.00
2022-08-20T14:33:44.544Z,78.50
2022-08-20T14:38:48.041Z,76.50
2022-08-20T14:43:50.932Z,77.40
2022-08-20T14:48:59.898Z,77.10
2022-08-20T14:54:05.023Z,76.70
2022-08-20T14:59:07.941Z,77.70
2022-08-20T15:04:10.992Z,78.30
2022-08-20T15:09:14.646Z,79.80
2022-08-20T15:14:18.503Z,77.00
2022-08-20T15:19:23.531Z,75.10
2022-08-20T15:24:26.626Z,72.90
2022-08-20T15:29:29.993Z,74.30
2022-08-20T15:34:33.980Z,73.20
2022-08-20T15:39:37.124Z,72.70
2022-08-20T15:44:41.972Z,70.50
2022-08-20T15:49:47.410Z,73.10
2022-08-20T15:54:55.066Z,75.40
2022-08-20T16:00:10.433Z,75.60
2022-08-20T16:05:39.080Z,78.50
2022-08-20T16:10:51.562Z,79.00
2022-08-20T16:15:57.287Z,82.10
2022-08-20T16:21:03.738Z,82.00
2022-08-20T16:26:12.967Z,82.30
2022-08-20T16:31:23.192Z,85.80
2022-08-20T16:36:44.102Z,86.00
2022-08-20T16:41:51.636Z,87.20
2022-08-20T16:47:17.792Z,87.30
2022-08-20T16:52:21.262Z,89.40
2022-08-20T16:57:26.866Z,90.10
2022-08-20T17:02:30.832Z,90.60
2022-08-20T17:07:57.309Z,91.10
2022-08-20T17:13:28.251Z,91.60
2022-08-20T17:18:35.287Z,92.20
2022-08-20T17:23:55.597Z,92.70
2022-08-20T17:29:13.462Z,92.90
2022-08-20T17:34:26.141Z,93.60
2022-08-20T17:39:30.432Z,94.80
2022-08-20T17:44:39.591Z,96.10
2022-08-20T17:50:02.177Z,98.10
2022-08-20T17:55:09.071Z,99.90
2022-08-20T18:00:17.282Z,99.90
2022-08-20T18:05:22.258Z,99.90
2022-08-20T18:10:27.864Z,99.90
2022-08-20T18:15:47.282Z,99.90
2022-08-20T18:21:21.853Z,99.90
2022-08-20T18:26:57.901Z,99.90
2022-08-20T18:32:10.549Z,99.90
2022-08-20T18:37:14.495Z,99.90
2022-08-20T18:42:34.071Z,99.90
2022-08-20T18:47:36.931Z,99.90
2022-08-20T18:52:45.366Z,99.90
2022-08-20T18:58:16.132Z,99.90
2022-08-20T19:03:22.431Z,99.90
2022-08-20T19:08:38.101Z,99.90
2022-08-20T19:14:04.249Z,99.90
2022-08-20T19:19:18.441Z,99.90
2022-08-20T19:24:28.201Z,99.90
2022-08-20T19:29:56.890Z,99.90
2022-08-20T19:35:03.943Z,99.90
2022-08-20T19:40:19.173Z,99.90
2022-08-20T19:45:49.342Z,99.90
2022-08-20T19:51:07.001Z,99.90
2022-08-20T19:56:25.287Z,99.90
2022-08-20T20:01:29.641Z,99.90
2022-08-20T20:06:38.192Z,99.90
2022-08-20T20:11:53.052Z,99.90
2022-08-20T20:16:57.493Z,99.90
2022-08-20T20:22:19.248Z,99.90
2022-08-20T20:27:27.372Z,99.90
2022-08-20T20:32:31.242Z,99.90
2022-08-20T20:37:49.846Z,99.90
2022-08-20T20:43:10.174Z,99.90
2022-08-20T20:48:24.208Z,99.90
2022-08-20T20:53:49.512Z,99.90
2022-08-20T20:59:00.168Z,99.90
2022-08-20T21:04:05.680Z,99.90
2022-08-20T21:09:09.504Z,99.90
2022-08-20T21:14:12.878Z,99.90
2022-08-20T21:19:16.524Z,99.90
2022-08-20T21:24:19.833Z,99.90
2022-08-20T21:29:43.282Z,99.90
2022-08-20T21:34:46.310Z,99.90
2022-08-20T21:39:49.282Z,99.90
2022-08-20T21:44:52.432Z,99.90
2022-08-20T21:49:56.132Z,99.90
2022-08-20T21:54:59.231Z,99.90
2022-08-20T22:00:17.057Z,99.90
2022-08-20T22:05:20.104Z,99.90
2022-08-20T22:10:22.931Z,99.90
2022-08-20T22:15:26.523Z,99.90
2022-08-20T22:20:34.289Z,99.90
2022-08-20T22:25:41.285Z,99.90
2022-08-20T22:30:45.038Z,99.90
2022-08-20T22:35:52.259Z,99.90
2022-08-20T22:40:55.575Z,99.90
2022-08-20T22:46:01.221Z,99.90
2022-08-20T22:51:04.541Z,99.90
2022-08-20T22:56:07.851Z,99.90
2022-08-20T23:01:22.950Z,99.90
2022-08-20T23:06:28.418Z,99.90
2022-08-20T23:11:31.831Z,99.90
2022-08-20T23:16:45.803Z,99.90
2022-08-20T23:21:52.741Z,99.90
2022-08-20T23:26:56.020Z,99.90
2022-08-20T23:31:59.489Z,99.90
2022-08-20T23:37:03.952Z,99.90
2022-08-20T23:42:07.231Z,99.90
2022-08-20T23:47:12.180Z,99.90
2022-08-20T23:52:15.522Z,99.90
2022-08-20T23:57:21.423Z,99.90
